createdAt,value
2018-06-28T00:02:06.105Z,2.00
2018-06-28T00:04:34.393Z,2.00
2018-06-28T00:07:02.678Z,2.00
2018-06-28T00:09:30.925Z,1.90
2018-06-28T00:11:59.266Z,1.90
2018-06-28T00:14:27.530Z,1.80
2018-06-28T00:16:55.873Z,1.87
2018-06-28T00:19:24.127Z,2.27
2018-06-28T00:21:52.396Z,1.70
2018-06-28T00:24:20.508Z,1.87
2018-06-28T00:27:36.328Z,2.00
2018-06-28T00:30:05.265Z,2.07
2018-06-28T00:32:33.820Z,2.13
2018-06-28T00:35:02.225Z,2.10
2018-06-28T00:37:30.671Z,1.90
2018-06-28T00:39:58.929Z,1.97
2018-06-28T00:42:27.232Z,2.07
2018-06-28T00:44:55.571Z,2.00
2018-06-28T00:47:23.817Z,2.20
2018-06-28T00:49:52.169Z,2.00
2018-06-28T00:52:20.445Z,2.20
2018-06-28T00:54:48.714Z,2.30
2018-06-28T00:57:16.980Z,2.03
2018-06-28T00:59:45.249Z,2.10
2018-06-28T01:02:13.622Z,2.10
2018-06-28T01:04:42.588Z,1.97
2018-06-28T01:07:10.840Z,1.77
2018-06-28T01:09:39.186Z,2.20
2018-06-28T01:12:08.144Z,2.10
2018-06-28T01:14:36.475Z,2.07
2018-06-28T01:17:05.080Z,2.23
2018-06-28T01:19:33.333Z,2.03
2018-06-28T01:22:01.748Z,2.13
2018-06-28T01:24:29.981Z,1.90
2018-06-28T01:26:57.998Z,1.80
2018-06-28T01:29:26.337Z,2.20
2018-06-28T01:31:54.633Z,2.13
2018-06-28T01:34:22.927Z,1.80
2018-06-28T01:36:51.318Z,2.07
2018-06-28T01:39:19.596Z,2.03
2018-06-28T01:41:59.327Z,2.00
2018-06-28T01:44:27.597Z,2.00
2018-06-28T01:46:55.879Z,1.83
2018-06-28T01:49:24.138Z,2.10
2018-06-28T01:51:52.397Z,1.90
2018-06-28T01:54:20.690Z,2.00
2018-06-28T01:56:48.943Z,2.10
2018-06-28T01:59:17.220Z,2.20
2018-06-28T02:01:45.506Z,2.17
2018-06-28T02:04:13.795Z,2.00
2018-06-28T02:06:42.061Z,1.90
2018-06-28T02:09:10.737Z,2.03
2018-06-28T02:11:39.030Z,2.00
2018-06-28T02:14:07.540Z,2.00
2018-06-28T02:16:35.943Z,2.43
2018-06-28T02:19:04.217Z,2.20
2018-06-28T02:21:32.467Z,2.03
2018-06-28T02:24:00.729Z,2.20
2018-06-28T02:26:28.977Z,1.80
2018-06-28T02:28:57.280Z,2.20
2018-06-28T02:31:25.553Z,2.17
2018-06-28T02:33:53.823Z,1.90
2018-06-28T02:36:22.097Z,2.30
2018-06-28T02:38:50.341Z,2.40
2018-06-28T02:41:18.670Z,2.00
2018-06-28T02:43:46.860Z,1.93
2018-06-28T02:46:15.182Z,1.97
2018-06-28T02:48:44.604Z,1.90
2018-06-28T02:51:12.893Z,2.10
2018-06-28T02:53:41.203Z,2.07
2018-06-28T02:56:09.493Z,2.07
2018-06-28T02:58:37.803Z,2.00
2018-06-28T03:01:06.369Z,2.40
2018-06-28T03:03:34.657Z,2.00
2018-06-28T03:06:02.938Z,1.90
2018-06-28T03:08:31.196Z,2.10
2018-06-28T03:10:59.467Z,1.97
2018-06-28T03:13:27.722Z,2.23
2018-06-28T03:15:55.995Z,2.30
2018-06-28T03:18:24.289Z,2.37
2018-06-28T03:20:52.592Z,2.00
2018-06-28T03:23:20.857Z,2.00
2018-06-28T03:25:49.313Z,2.03
2018-06-28T03:28:17.597Z,2.10
2018-06-28T03:30:45.930Z,1.87
2018-06-28T03:33:14.265Z,1.97
2018-06-28T03:35:42.545Z,2.17
2018-06-28T03:38:11.006Z,2.00
2018-06-28T03:40:39.270Z,2.03
2018-06-28T03:43:07.518Z,1.93
2018-06-28T03:45:35.801Z,2.20
2018-06-28T03:48:04.050Z,2.10
2018-06-28T03:50:32.330Z,2.13
2018-06-28T03:53:00.613Z,2.17
2018-06-28T03:55:28.993Z,2.20
2018-06-28T03:57:58.193Z,1.90
2018-06-28T04:00:26.466Z,1.90
2018-06-28T04:02:54.796Z,2.27
2018-06-28T04:05:23.858Z,2.27
2018-06-28T04:07:52.141Z,1.93
2018-06-28T04:10:20.443Z,2.20
2018-06-28T04:12:50.642Z,2.00
2018-06-28T04:15:18.937Z,2.10
2018-06-28T04:17:47.219Z,2.13
2018-06-28T04:20:15.513Z,2.30
2018-06-28T04:22:43.776Z,2.40
2018-06-28T04:25:18.979Z,1.93
2018-06-28T04:27:47.332Z,1.90
2018-06-28T04:30:19.608Z,2.27
2018-06-28T04:32:48.275Z,2.27
2018-06-28T04:35:16.562Z,2.20
2018-06-28T04:37:49.192Z,1.90
2018-06-28T04:40:17.489Z,2.20
2018-06-28T04:42:45.749Z,2.37
2018-06-28T04:45:16.584Z,2.20
2018-06-28T04:47:44.944Z,2.30
2018-06-28T04:50:13.288Z,2.30
2018-06-28T04:52:41.536Z,2.70
2018-06-28T04:55:09.809Z,3.27
2018-06-28T04:57:39.058Z,2.13
2018-06-28T05:00:07.402Z,2.13
2018-06-28T05:02:35.677Z,2.40
2018-06-28T05:05:03.965Z,2.27
2018-06-28T05:07:32.221Z,2.30
2018-06-28T05:10:00.524Z,3.53
2018-06-28T05:12:28.950Z,2.67
2018-06-28T05:14:57.509Z,2.20
2018-06-28T05:17:25.811Z,2.53
2018-06-28T05:19:54.233Z,2.67
2018-06-28T05:22:22.888Z,3.00
2018-06-28T05:24:51.150Z,2.73
2018-06-28T05:27:19.393Z,3.27
2018-06-28T05:29:47.771Z,2.37
2018-06-28T05:32:16.121Z,4.40
2018-06-28T05:34:44.426Z,3.50
2018-06-28T05:37:12.650Z,2.40
2018-06-28T05:39:40.965Z,2.33
2018-06-28T05:42:09.294Z,2.10
2018-06-28T05:44:37.824Z,3.20
2018-06-28T05:47:06.142Z,3.30
2018-06-28T05:49:34.411Z,2.60
2018-06-28T05:52:02.679Z,2.97
2018-06-28T05:54:30.913Z,3.27
2018-06-28T05:56:59.193Z,2.63
2018-06-28T05:59:27.448Z,2.80
2018-06-28T06:01:55.816Z,2.37
2018-06-28T06:04:24.066Z,2.63
2018-06-28T06:06:52.036Z,2.40
2018-06-28T06:09:20.316Z,3.30
2018-06-28T06:11:48.654Z,2.83
2018-06-28T06:14:16.930Z,2.30
2018-06-28T06:16:45.225Z,2.70
2018-06-28T06:19:13.493Z,2.73
2018-06-28T06:21:41.780Z,4.93
2018-06-28T06:24:10.085Z,4.63
2018-06-28T06:26:38.380Z,2.97
2018-06-28T06:29:06.694Z,3.10
2018-06-28T06:31:35.438Z,3.50
2018-06-28T06:34:03.781Z,3.50
2018-06-28T06:36:32.034Z,3.70
2018-06-28T06:39:00.293Z,4.13
2018-06-28T06:41:28.605Z,3.63
2018-06-28T06:43:56.878Z,3.60
2018-06-28T06:46:24.919Z,4.13
2018-06-28T06:48:53.205Z,3.70
2018-06-28T06:51:21.481Z,3.50
2018-06-28T06:53:49.749Z,3.70
2018-06-28T06:56:18.026Z,4.20
2018-06-28T06:58:46.327Z,4.17
2018-06-28T07:01:14.615Z,3.80
2018-06-28T07:03:43.033Z,3.10
2018-06-28T07:06:11.326Z,3.73
2018-06-28T07:08:39.582Z,4.43
2018-06-28T07:11:07.849Z,3.27
2018-06-28T07:13:36.078Z,3.17
2018-06-28T07:16:04.480Z,3.13
2018-06-28T07:18:32.717Z,4.13
2018-06-28T07:21:00.957Z,3.37
2018-06-28T07:23:29.422Z,4.10
2018-06-28T07:25:57.662Z,3.47
2018-06-28T07:28:25.955Z,4.10
2018-06-28T07:30:54.239Z,3.00
2018-06-28T07:33:22.507Z,2.97
2018-06-28T07:35:50.769Z,2.90
2018-06-28T07:38:19.112Z,3.30
2018-06-28T07:40:47.417Z,3.33
2018-06-28T07:43:15.784Z,3.70
2018-06-28T07:45:44.056Z,3.80
2018-06-28T07:48:12.338Z,4.20
2018-06-28T07:50:40.623Z,3.73
2018-06-28T07:53:08.878Z,3.20
2018-06-28T07:55:37.161Z,3.37
2018-06-28T07:58:05.697Z,3.30
2018-06-28T08:00:34.017Z,4.27
2018-06-28T08:03:02.308Z,3.47
2018-06-28T08:05:30.686Z,3.30
2018-06-28T08:07:58.971Z,3.60
2018-06-28T08:10:27.305Z,3.10
2018-06-28T08:12:55.611Z,3.27
2018-06-28T08:15:23.882Z,3.70
2018-06-28T08:17:52.134Z,4.00
2018-06-28T08:20:20.397Z,3.60
2018-06-28T08:22:48.775Z,3.03
2018-06-28T08:25:17.351Z,3.60
2018-06-28T08:27:45.672Z,4.13
2018-06-28T08:30:14.006Z,3.50
2018-06-28T08:32:42.286Z,3.77
2018-06-28T08:35:10.633Z,3.27
2018-06-28T08:37:38.904Z,3.77
2018-06-28T08:40:07.176Z,4.67
2018-06-28T08:42:35.435Z,4.53
2018-06-28T08:45:03.761Z,3.77
2018-06-28T08:47:32.150Z,3.20
2018-06-28T08:50:00.406Z,3.13
2018-06-28T08:52:28.716Z,4.80
2018-06-28T08:54:57.021Z,3.27
2018-06-28T08:57:25.290Z,4.60
2018-06-28T08:59:53.572Z,3.53
2018-06-28T09:02:21.913Z,4.27
2018-06-28T09:04:50.264Z,4.40
2018-06-28T09:07:18.581Z,4.07
2018-06-28T09:09:46.901Z,3.70
2018-06-28T09:12:15.221Z,8.97
2018-06-28T09:14:43.481Z,8.87
2018-06-28T09:17:11.757Z,11.57
2018-06-28T09:19:40.054Z,4.73
2018-06-28T09:22:08.324Z,8.57
2018-06-28T09:24:36.618Z,7.03
2018-06-28T09:27:05.051Z,5.60
2018-06-28T09:29:33.355Z,6.23
2018-06-28T09:32:01.621Z,4.70
2018-06-28T09:34:29.927Z,4.90
2018-06-28T09:36:58.205Z,8.80
2018-06-28T09:39:26.541Z,4.40
2018-06-28T09:41:54.813Z,8.10
2018-06-28T09:44:23.129Z,6.93
2018-06-28T09:46:51.402Z,9.03
2018-06-28T09:49:19.724Z,5.97
2018-06-28T09:51:47.998Z,5.87
2018-06-28T09:54:16.233Z,8.83
2018-06-28T09:56:44.519Z,6.70
2018-06-28T09:59:12.769Z,5.57
2018-06-28T10:01:41.038Z,8.17
2018-06-28T10:04:09.329Z,6.03
2018-06-28T10:06:37.624Z,4.70
2018-06-28T10:09:07.493Z,5.83
2018-06-28T10:11:35.805Z,8.40
2018-06-28T10:14:04.104Z,7.10
2018-06-28T10:16:32.385Z,6.50
2018-06-28T10:19:00.701Z,5.20
2018-06-28T10:21:28.956Z,5.77
2018-06-28T10:23:57.293Z,5.03
2018-06-28T10:26:25.589Z,6.20
2018-06-28T10:28:53.844Z,6.70
2018-06-28T10:31:22.138Z,5.83
2018-06-28T10:33:50.392Z,5.07
2018-06-28T10:36:18.670Z,5.73
2018-06-28T10:38:46.939Z,5.40
2018-06-28T10:41:15.221Z,4.63
2018-06-28T10:43:43.477Z,5.43
2018-06-28T10:46:12.349Z,5.70
2018-06-28T10:48:40.664Z,5.10
2018-06-28T10:51:09.001Z,5.90
2018-06-28T10:53:37.268Z,5.10
2018-06-28T10:56:05.892Z,4.50
2018-06-28T10:58:34.242Z,5.80
2018-06-28T11:01:02.485Z,5.00
2018-06-28T11:03:30.754Z,5.67
2018-06-28T11:05:59.022Z,5.60
2018-06-28T11:08:27.395Z,4.93
2018-06-28T11:10:55.584Z,4.67
2018-06-28T11:13:23.844Z,6.90
2018-06-28T11:15:52.109Z,5.83
2018-06-28T11:18:22.828Z,5.70
2018-06-28T11:20:51.097Z,5.83
2018-06-28T11:23:19.406Z,5.30
2018-06-28T11:25:47.737Z,5.80
2018-06-28T11:28:16.169Z,4.83
2018-06-28T11:30:44.508Z,5.67
2018-06-28T11:33:12.946Z,5.70
2018-06-28T11:35:41.201Z,5.07
2018-06-28T11:38:09.625Z,5.03
2018-06-28T11:40:38.678Z,6.20
2018-06-28T11:43:06.968Z,5.50
2018-06-28T11:45:35.236Z,5.50
2018-06-28T11:48:03.736Z,5.17
2018-06-28T11:50:32.208Z,5.17
2018-06-28T11:53:00.564Z,5.67
2018-06-28T11:55:28.884Z,5.50
2018-06-28T11:57:57.330Z,5.10
2018-06-28T12:00:25.658Z,5.40
2018-06-28T12:02:53.899Z,5.67
2018-06-28T12:05:22.298Z,5.37
2018-06-28T12:07:51.432Z,5.27
2018-06-28T12:10:19.728Z,5.17
2018-06-28T12:12:48.545Z,5.47
2018-06-28T12:15:17.753Z,4.80
2018-06-28T12:17:46.249Z,5.40
2018-06-28T12:20:15.552Z,5.73
2018-06-28T12:22:43.936Z,5.07
2018-06-28T12:25:12.372Z,4.93
2018-06-28T12:27:40.868Z,4.80
2018-06-28T12:30:09.349Z,5.10
2018-06-28T12:32:37.730Z,5.30
2018-06-28T12:35:07.104Z,5.30
2018-06-28T12:37:36.336Z,5.40
2018-06-28T12:40:05.233Z,7.70
2018-06-28T12:42:33.655Z,4.90
2018-06-28T12:45:02.066Z,5.13
2018-06-28T12:47:44.245Z,4.93
2018-06-28T12:50:12.953Z,6.90
2018-06-28T12:52:46.933Z,6.03
2018-06-28T12:55:19.201Z,5.83
2018-06-28T12:57:48.220Z,6.90
2018-06-28T13:00:17.008Z,5.60
2018-06-28T13:02:45.388Z,6.60
2018-06-28T13:05:14.625Z,5.17
2018-06-28T13:07:44.476Z,5.03
2018-06-28T13:10:13.109Z,4.80
2018-06-28T13:12:41.608Z,4.90
2018-06-28T13:15:13.345Z,4.93
2018-06-28T13:17:41.961Z,5.43
2018-06-28T13:20:10.833Z,5.20
2018-06-28T13:22:39.736Z,5.27
2018-06-28T13:25:09.227Z,6.40
2018-06-28T13:27:37.516Z,4.13
2018-06-28T13:30:07.237Z,4.77
2018-06-28T13:32:36.705Z,5.20
2018-06-28T13:35:05.332Z,7.37
2018-06-28T13:37:33.665Z,5.03
2018-06-28T13:40:01.932Z,7.20
2018-06-28T13:42:30.206Z,5.10
2018-06-28T13:44:58.500Z,4.73
2018-06-28T13:47:26.993Z,4.73
2018-06-28T13:49:55.363Z,6.97
2018-06-28T13:52:23.998Z,4.40
2018-06-28T13:54:52.464Z,4.90
2018-06-28T13:57:20.737Z,4.90
2018-06-28T13:59:49.013Z,4.80
2018-06-28T14:02:17.309Z,4.43
2018-06-28T14:04:45.611Z,4.50
2018-06-28T14:07:13.887Z,4.37
2018-06-28T14:09:42.145Z,6.17
2018-06-28T14:12:10.428Z,4.87
2018-06-28T14:14:38.689Z,5.00
2018-06-28T14:17:06.983Z,4.23
2018-06-28T14:19:35.268Z,5.00
2018-06-28T14:22:04.209Z,5.20
2018-06-28T14:24:32.454Z,6.20
2018-06-28T14:27:01.377Z,5.10
2018-06-28T14:29:29.661Z,4.53
2018-06-28T14:31:58.002Z,4.50
2018-06-28T14:34:26.245Z,4.90
2018-06-28T14:36:54.564Z,4.77
2018-06-28T14:39:22.874Z,6.30
2018-06-28T14:41:51.190Z,5.73
2018-06-28T14:44:19.440Z,7.87
2018-06-28T14:46:47.761Z,5.27
2018-06-28T14:49:16.097Z,6.63
2018-06-28T14:51:44.476Z,4.53
2018-06-28T14:54:12.770Z,4.60
2018-06-28T14:56:41.081Z,6.07
2018-06-28T14:59:09.390Z,4.63
2018-06-28T15:01:37.685Z,5.00
2018-06-28T15:04:05.980Z,4.63
2018-06-28T15:06:34.220Z,5.47
2018-06-28T15:09:02.493Z,4.40
2018-06-28T15:11:30.793Z,4.80
2018-06-28T15:13:59.033Z,4.80
2018-06-28T15:16:27.300Z,4.60
2018-06-28T15:18:55.710Z,6.27
2018-06-28T15:21:24.019Z,5.10
2018-06-28T15:23:52.274Z,4.83
2018-06-28T15:26:20.537Z,4.87
2018-06-28T15:28:48.817Z,6.97
2018-06-28T15:31:17.155Z,4.93
2018-06-28T15:33:45.588Z,7.43
2018-06-28T15:36:13.881Z,7.83
2018-06-28T15:38:42.187Z,4.37
2018-06-28T15:41:10.474Z,7.53
2018-06-28T15:43:39.002Z,5.43
2018-06-28T15:46:07.293Z,8.10
2018-06-28T15:48:35.568Z,6.53
2018-06-28T15:51:03.924Z,8.00
2018-06-28T15:53:32.220Z,4.83
2018-06-28T15:56:00.514Z,4.30
2018-06-28T15:58:28.515Z,4.73
2018-06-28T16:00:56.769Z,4.50
2018-06-28T16:03:25.032Z,4.50
2018-06-28T16:05:53.304Z,4.67
2018-06-28T16:08:21.590Z,4.73
2018-06-28T16:10:49.925Z,4.20
2018-06-28T16:13:18.181Z,4.23
2018-06-28T16:15:48.050Z,8.00
2018-06-28T16:18:16.316Z,9.03
2018-06-28T16:20:44.620Z,8.40
2018-06-28T16:23:12.940Z,6.70
2018-06-28T16:25:40.989Z,6.10
2018-06-28T16:28:09.248Z,6.73
2018-06-28T16:30:37.533Z,6.10
2018-06-28T16:33:06.014Z,6.10
2018-06-28T16:35:34.435Z,7.43
2018-06-28T16:38:02.841Z,5.77
2018-06-28T16:40:31.116Z,5.83
2018-06-28T16:42:59.423Z,6.03
2018-06-28T16:45:27.789Z,5.70
2018-06-28T16:47:56.120Z,5.67
2018-06-28T16:50:24.444Z,5.77
2018-06-28T16:52:52.777Z,6.17
2018-06-28T16:55:21.049Z,5.60
2018-06-28T16:57:49.386Z,5.10
2018-06-28T17:00:17.722Z,5.43
2018-06-28T17:02:46.209Z,5.13
2018-06-28T17:05:15.129Z,5.53
2018-06-28T17:07:43.702Z,4.97
2018-06-28T17:10:11.971Z,5.47
2018-06-28T17:12:40.284Z,4.90
2018-06-28T17:15:08.585Z,5.13
2018-06-28T17:17:36.882Z,7.20
2018-06-28T17:20:05.300Z,4.50
2018-06-28T17:22:33.596Z,4.73
2018-06-28T17:25:01.885Z,4.80
2018-06-28T17:27:30.707Z,4.83
2018-06-28T17:30:00.271Z,4.70
2018-06-28T17:32:28.540Z,5.13
2018-06-28T17:34:56.828Z,4.50
2018-06-28T17:37:25.092Z,4.60
2018-06-28T17:39:53.330Z,4.37
2018-06-28T17:42:22.116Z,4.40
2018-06-28T17:44:50.393Z,4.53
2018-06-28T17:47:18.730Z,4.30
2018-06-28T17:49:47.012Z,4.27
2018-06-28T17:52:15.309Z,4.30
2018-06-28T17:54:43.609Z,4.33
2018-06-28T17:57:11.911Z,3.80
2018-06-28T17:59:40.213Z,4.33
2018-06-28T18:02:08.489Z,4.97
2018-06-28T18:04:36.775Z,4.07
2018-06-28T18:07:05.084Z,4.33
2018-06-28T18:09:33.346Z,3.90
2018-06-28T18:12:01.632Z,5.07
2018-06-28T18:14:29.941Z,4.20
2018-06-28T18:16:58.240Z,4.20
2018-06-28T18:19:27.795Z,6.57
2018-06-28T18:21:56.207Z,4.73
2018-06-28T18:24:24.573Z,3.83
2018-06-28T18:26:52.856Z,4.03
2018-06-28T18:29:21.101Z,4.20
2018-06-28T18:31:49.417Z,4.40
2018-06-28T18:34:17.688Z,5.40
2018-06-28T18:36:45.971Z,4.30
2018-06-28T18:39:14.420Z,4.57
2018-06-28T18:41:42.737Z,4.40
2018-06-28T18:44:11.114Z,4.77
2018-06-28T18:46:39.369Z,5.80
2018-06-28T18:49:07.663Z,6.33
2018-06-28T18:51:35.928Z,4.47
2018-06-28T18:54:04.201Z,5.83
2018-06-28T18:56:32.470Z,5.87
2018-06-28T18:59:00.754Z,5.47
2018-06-28T19:01:29.069Z,4.40
2018-06-28T19:03:57.402Z,3.90
2018-06-28T19:06:29.679Z,3.40
2018-06-28T19:08:58.032Z,3.87
2018-06-28T19:11:26.397Z,4.17
2018-06-28T19:14:00.171Z,4.53
2018-06-28T19:16:33.899Z,3.83
2018-06-28T19:19:02.157Z,3.73
2018-06-28T19:21:35.889Z,4.10
2018-06-28T19:24:04.181Z,4.57
2018-06-28T19:26:32.416Z,4.00
2018-06-28T19:29:04.969Z,3.80
2018-06-28T19:31:38.661Z,3.50
2018-06-28T19:34:06.949Z,3.60
2018-06-28T19:36:35.195Z,4.27
2018-06-28T19:39:08.869Z,3.80
2018-06-28T19:41:42.617Z,3.40
2018-06-28T19:44:10.898Z,3.77
2018-06-28T19:46:39.181Z,3.73
2018-06-28T19:49:11.644Z,3.87
2018-06-28T19:51:45.244Z,3.27
2018-06-28T19:54:13.544Z,3.30
2018-06-28T19:56:41.937Z,4.23
2018-06-28T19:59:10.028Z,4.43
2018-06-28T20:01:43.591Z,3.80
2018-06-28T20:04:11.980Z,4.47
2018-06-28T20:06:41.318Z,3.10
2018-06-28T20:09:10.034Z,3.50
2018-06-28T20:11:38.716Z,4.10
2018-06-28T20:14:13.047Z,4.10
2018-06-28T20:16:46.718Z,3.80
2018-06-28T20:19:20.498Z,4.10
2018-06-28T20:21:48.749Z,3.57
2018-06-28T20:24:17.143Z,3.57
2018-06-28T20:27:52.429Z,3.13
2018-06-28T20:30:26.228Z,3.50
2018-06-28T20:33:00.001Z,3.23
2018-06-28T20:35:28.322Z,3.13
2018-06-28T20:37:56.611Z,3.37
2018-06-28T20:40:24.952Z,3.23
2018-06-28T20:42:53.277Z,3.20
2018-06-28T20:45:21.656Z,3.30
2018-06-28T20:47:50.062Z,3.10
2018-06-28T20:50:18.544Z,3.40
2018-06-28T20:52:46.999Z,3.37
2018-06-28T20:55:15.483Z,3.57
2018-06-28T20:57:43.871Z,2.97
2018-06-28T21:00:12.145Z,3.20
2018-06-28T21:02:40.598Z,2.97
2018-06-28T21:05:08.913Z,3.00
2018-06-28T21:07:37.309Z,3.10
2018-06-28T21:10:05.637Z,3.07
2018-06-28T21:12:34.016Z,3.47
2018-06-28T21:15:02.325Z,3.27
2018-06-28T21:17:30.604Z,3.20
2018-06-28T21:19:58.906Z,3.17
2018-06-28T21:22:27.229Z,3.43
2018-06-28T21:24:55.691Z,3.30
2018-06-28T21:27:24.065Z,3.20
2018-06-28T21:29:52.331Z,3.83
2018-06-28T21:32:20.724Z,3.37
2018-06-28T21:34:49.069Z,4.23
2018-06-28T21:37:17.340Z,3.40
2018-06-28T21:39:45.660Z,4.40
2018-06-28T21:42:13.956Z,3.67
2018-06-28T21:44:42.360Z,3.93
2018-06-28T21:47:10.667Z,3.53
2018-06-28T21:49:39.058Z,4.10
2018-06-28T21:52:07.356Z,3.20
2018-06-28T21:54:35.677Z,3.63
2018-06-28T21:57:03.988Z,3.43
2018-06-28T21:59:32.231Z,2.97
2018-06-28T22:02:00.567Z,2.87
2018-06-28T22:04:28.802Z,3.53
2018-06-28T22:06:57.081Z,2.87
2018-06-28T22:09:25.337Z,3.00
2018-06-28T22:11:53.372Z,2.90
2018-06-28T22:14:21.699Z,2.97
2018-06-28T22:16:49.861Z,3.27
2018-06-28T22:19:18.137Z,3.23
2018-06-28T22:21:46.405Z,2.70
2018-06-28T22:24:14.686Z,3.63
2018-06-28T22:26:43.032Z,3.17
2018-06-28T22:29:11.341Z,3.20
2018-06-28T22:31:39.641Z,3.03
2018-06-28T22:34:08.237Z,3.23
2018-06-28T22:36:36.470Z,3.00
2018-06-28T22:39:07.404Z,2.90
2018-06-28T22:41:35.697Z,3.03
2018-06-28T22:44:04.186Z,3.03
2018-06-28T22:46:32.725Z,4.17
2018-06-28T22:49:01.005Z,3.03
2018-06-28T22:51:29.325Z,4.17
2018-06-28T22:53:58.129Z,2.90
2018-06-28T22:56:26.400Z,3.03
2018-06-28T22:58:54.708Z,3.17
2018-06-28T23:01:22.969Z,3.47
2018-06-28T23:03:51.245Z,3.00
2018-06-28T23:06:19.577Z,4.23
2018-06-28T23:08:47.878Z,3.50
2018-06-28T23:11:16.232Z,2.73
2018-06-28T23:13:45.213Z,3.00
2018-06-28T23:16:13.486Z,3.70
2018-06-28T23:18:41.745Z,3.17
2018-06-28T23:21:10.037Z,2.87
2018-06-28T23:23:38.269Z,3.40
2018-06-28T23:26:06.521Z,4.43
2018-06-28T23:28:34.819Z,2.87
2018-06-28T23:31:03.185Z,3.00
2018-06-28T23:33:31.478Z,2.93
2018-06-28T23:35:59.735Z,3.77
2018-06-28T23:38:27.996Z,3.10
2018-06-28T23:40:56.297Z,2.93
2018-06-28T23:43:24.564Z,3.50
2018-06-28T23:45:52.893Z,3.30
2018-06-28T23:48:21.180Z,3.40
2018-06-28T23:50:49.542Z,3.30
2018-06-28T23:53:17.796Z,2.90
2018-06-28T23:55:46.057Z,2.90
2018-06-28T23:58:14.337Z,3.20
